Aeroporto :
LOGIN :

Iscrizione | Disclaimer

   EN    FR    IT 

 










Sommario :    VFR   VFR Marginale   IFR   IFR Intensivo   IFR Molto Intensivo
Visibilità : 
Base nubi : 
>= 8 km
>= 3000ft
5 / 8 km
1000 / 3000 ft
1500m / 5 km
500 / 1000 ft
800 / 1500m
200 / 500 ft
< 800m
< 200 ft
Simboli :   Temporali  Nebbia  Neve Forte  Precipitazioni Forti  Vento > 20 kt
SIGMETs :   Varie  Temporali  Ghiacco  Turbolenza  Onda orograficha  Ceneri Vulcaniche






- Altitudine del aeroporto : 308 ft
- Codice IATA : POZ


EPPO - Poznan-Lawica

ULTIMO METAR :
  • 101000Z 29009KT 260V350 CAVOK 12/M02 Q1026

METARs OBSOLETI :
  • 100930Z 28011KT CAVOK 11/M01 Q1026
  • 100900Z 27007KT CAVOK 11/M01 Q1026
  • 100830Z 31007KT CAVOK 10/M01 Q1026
  • 100800Z 30006KT CAVOK 09/M01 Q1026
  • 100730Z 27005KT CAVOK 09/00 Q1026

TAF TAF EPPO
Valido dal 10 a 06 ore il 11 a 06 ore UTC


100530Z 1006/1106 28005KT CAVOK



MetMap, La meteo Aeronautica in un colpo d'occhio ! - Copyright ORBIFLY Dicembre 2007 - Disclaimer

ORBIFLY MET'MAP TEAM :

Programmazione e sviluppo : Alexandra Zaïnal
Concezione : Baudouin d'Aumeries
Aiuto per la programmazione : Marc-Olivier Méhu
Supporto tecnico e logistico : Manuel Goepfert
Aiuto per la traduzione : Arnaldo La Scala

Contatto : metmap@orbifly.com




FONTI E CREDITI :

   NOAA